Time;durP1;ratioP1;P1;durP2;ratioP2;P2;SDS_P1;SDS_P2;PMS_P1;PMS_P2;Temp;Humidity;BMP_temperature;BMP_pressure;BME280_temperature;BME280_humidity;BME280_pressure;Samples;Min_cycle;Max_cycle;Signal;HPM_P1;HPM_P2
2023/07/20 00:01:13;;;;;;;0.60;0.40;;;20.00;99.90;;;;;;5014086;28;20214;-66
2023/07/20 00:03:41;;;;;;;0.50;0.40;;;20.10;99.90;;;;;;5014281;28;20225;-66
2023/07/20 00:06:09;;;;;;;1.02;0.77;;;20.20;99.90;;;;;;5013738;28;20264;-66
2023/07/20 00:08:37;;;;;;;0.70;0.50;;;20.20;99.90;;;;;;5014365;28;20218;-67
2023/07/20 00:11:05;;;;;;;0.70;0.52;;;20.30;99.90;;;;;;5014235;28;20214;-66
2023/07/20 00:13:34;;;;;;;0.60;0.50;;;20.20;99.90;;;;;;5019976;28;20210;-66
2023/07/20 00:16:02;;;;;;;0.80;0.60;;;20.30;99.90;;;;;;5013986;28;20652;-66
2023/07/20 00:18:30;;;;;;;0.63;0.45;;;20.30;99.90;;;;;;5014186;28;20226;-67
2023/07/20 00:20:59;;;;;;;0.70;0.60;;;20.40;99.90;;;;;;5013920;28;20203;-66
2023/07/20 00:23:27;;;;;;;0.60;0.40;;;20.50;99.90;;;;;;5031439;28;20221;-67
2023/07/20 00:25:55;;;;;;;0.70;0.50;;;20.50;99.90;;;;;;5025144;28;20233;-67
2023/07/20 00:28:23;;;;;;;0.60;0.47;;;20.50;99.90;;;;;;5021521;28;20210;-67
2023/07/20 00:30:52;;;;;;;0.60;0.43;;;20.50;99.90;;;;;;5013762;28;20211;-67
2023/07/20 00:33:21;;;;;;;0.60;0.50;;;20.40;99.90;;;;;;5013743;28;20214;-67
2023/07/20 00:35:48;;;;;;;0.73;0.57;;;20.30;99.90;;;;;;5013341;28;20233;-68
2023/07/20 00:38:17;;;;;;;0.68;0.52;;;20.20;99.90;;;;;;5013597;28;20210;-68
2023/07/20 00:40:44;;;;;;;0.60;0.50;;;20.10;99.90;;;;;;5013537;28;20233;-68
2023/07/20 00:43:12;;;;;;;0.60;0.50;;;19.80;99.90;;;;;;5014479;28;20249;-67
2023/07/20 00:45:40;;;;;;;0.60;0.40;;;19.70;99.90;;;;;;5012947;28;20259;-67
2023/07/20 00:48:10;;;;;;;1.23;0.65;;;19.60;99.90;;;;;;5013344;28;20208;-67
2023/07/20 00:50:39;;;;;;;0.88;0.60;;;19.50;99.90;;;;;;5014083;28;20209;-67
2023/07/20 00:53:08;;;;;;;0.60;0.40;;;19.40;99.90;;;;;;5019653;28;20214;-66
2023/07/20 00:55:36;;;;;;;0.60;0.50;;;19.30;99.90;;;;;;5027849;28;20206;-67
2023/07/20 00:58:05;;;;;;;0.60;0.50;;;19.30;99.90;;;;;;5012857;28;20212;-67
2023/07/20 01:00:33;;;;;;;0.70;0.55;;;19.30;99.90;;;;;;5013214;28;20202;-66
2023/07/20 01:03:01;;;;;;;0.70;0.43;;;19.30;99.90;;;;;;5018120;28;20220;-66
2023/07/20 01:05:41;;;;;;;0.60;0.60;;;19.30;99.90;;;;;;5012794;28;20221;-66
2023/07/20 01:08:18;;;;;;;0.60;0.50;;;19.40;99.90;;;;;;5013458;28;20265;-67
2023/07/20 01:10:52;;;;;;;0.95;0.77;;;19.30;99.90;;;;;;5013202;28;20899;-66
2023/07/20 01:13:22;;;;;;;0.70;0.50;;;19.50;99.90;;;;;;5012945;28;20206;-67
2023/07/20 01:15:58;;;;;;;0.60;0.40;;;19.80;99.90;;;;;;5012734;28;20229;-66
2023/07/20 01:18:26;;;;;;;0.60;0.52;;;19.80;99.90;;;;;;5012808;28;20205;-66
2023/07/20 01:21:00;;;;;;;0.70;0.60;;;20.00;99.90;;;;;;5012926;28;20213;-67
2023/07/20 01:23:56;;;;;;;0.60;0.40;;;20.10;99.90;;;;;;5029632;28;20207;-67
2023/07/20 01:26:51;;;;;;;0.77;0.68;;;20.10;99.90;;;;;;5022739;28;20308;-66
2023/07/20 01:29:31;;;;;;;0.70;0.45;;;20.00;99.90;;;;;;5026894;28;20205;-65
2023/07/20 01:32:03;;;;;;;0.60;0.43;;;20.20;99.90;;;;;;5012451;28;20692;-65
2023/07/20 01:34:32;;;;;;;0.70;0.40;;;20.10;99.90;;;;;;5020808;28;20210;-68
2023/07/20 01:37:02;;;;;;;0.60;0.40;;;20.20;99.90;;;;;;5016747;28;20288;-67
2023/07/20 01:39:30;;;;;;;0.80;0.45;;;20.10;99.90;;;;;;5020537;28;20561;-67
2023/07/20 01:41:58;;;;;;;0.60;0.45;;;20.00;99.90;;;;;;5012967;28;20210;-67
2023/07/20 01:44:26;;;;;;;0.60;0.40;;;19.80;99.90;;;;;;5011197;28;20217;-67
2023/07/20 01:46:54;;;;;;;0.82;0.50;;;19.80;99.90;;;;;;5011965;28;20250;-67
2023/07/20 01:49:24;;;;;;;0.60;0.52;;;19.80;99.90;;;;;;5012089;28;20203;-67
2023/07/20 01:51:52;;;;;;;0.60;0.57;;;19.70;99.90;;;;;;5016807;28;20204;-66
2023/07/20 01:54:21;;;;;;;0.85;0.60;;;19.70;99.90;;;;;;5030276;28;20205;-66
2023/07/20 01:56:49;;;;;;;0.60;0.40;;;19.80;99.90;;;;;;5025913;28;20231;-67
2023/07/20 01:59:17;;;;;;;0.60;0.43;;;20.10;99.90;;;;;;5017027;28;20253;-67
2023/07/20 02:01:45;;;;;;;1.20;0.65;;;20.20;99.90;;;;;;5011908;28;20210;-67
2023/07/20 02:04:13;;;;;;;0.50;0.40;;;20.20;99.90;;;;;;5011808;28;20215;-67
2023/07/20 02:06:42;;;;;;;0.60;0.45;;;20.20;99.90;;;;;;5011922;28;20230;-66
2023/07/20 02:09:10;;;;;;;0.60;0.50;;;20.20;99.90;;;;;;5014252;28;20213;-66
2023/07/20 02:11:38;;;;;;;0.60;0.40;;;20.20;99.90;;;;;;5020203;28;20260;-66
2023/07/20 02:14:06;;;;;;;0.70;0.60;;;20.30;99.90;;;;;;5012390;28;20264;-66
2023/07/20 02:16:34;;;;;;;0.70;0.40;;;20.20;99.90;;;;;;5011584;28;20772;-68
2023/07/20 02:19:02;;;;;;;0.60;0.45;;;20.40;99.90;;;;;;5012064;28;20209;-67
2023/07/20 02:21:29;;;;;;;0.60;0.43;;;20.20;99.90;;;;;;5013074;28;20866;-66
2023/07/20 02:23:59;;;;;;;1.08;0.57;;;20.20;99.90;;;;;;5030488;28;20599;-67
2023/07/20 02:26:27;;;;;;;1.23;0.90;;;19.80;99.90;;;;;;5020006;28;20229;-67
2023/07/20 02:28:55;;;;;;;0.60;0.50;;;19.70;99.90;;;;;;5011577;28;20214;-67
2023/07/20 02:31:22;;;;;;;0.60;0.40;;;19.50;99.90;;;;;;5011985;28;20263;-67
2023/07/20 02:33:50;;;;;;;0.60;0.40;;;19.40;99.90;;;;;;5011500;28;20270;-67
2023/07/20 02:36:19;;;;;;;0.60;0.50;;;19.30;99.90;;;;;;5011149;28;20241;-66
2023/07/20 02:38:47;;;;;;;0.60;0.40;;;19.20;99.90;;;;;;5015003;28;20238;-67
2023/07/20 02:41:16;;;;;;;0.60;0.50;;;19.10;99.90;;;;;;5011372;28;20257;-66
2023/07/20 02:43:44;;;;;;;0.70;0.50;;;19.00;99.90;;;;;;5011247;28;20624;-66
2023/07/20 02:46:12;;;;;;;0.70;0.50;;;19.00;99.90;;;;;;5010701;28;20284;-67
2023/07/20 02:48:40;;;;;;;0.80;0.47;;;19.00;99.90;;;;;;5012040;28;20222;-67
2023/07/20 02:51:09;;;;;;;1.88;0.60;;;18.90;99.90;;;;;;5011292;28;20221;-68
2023/07/20 02:53:37;;;;;;;0.60;0.40;;;18.80;99.90;;;;;;5029104;28;20208;-67
2023/07/20 02:56:05;;;;;;;0.60;0.40;;;18.70;99.90;;;;;;5022868;28;20228;-67
2023/07/20 02:58:37;;;;;;;0.60;0.50;;;18.70;99.90;;;;;;5011067;28;20206;-67
2023/07/20 03:01:04;;;;;;;0.60;0.50;;;18.60;99.90;;;;;;5011351;28;20215;-67
2023/07/20 03:03:38;;;;;;;0.70;0.50;;;18.50;99.90;;;;;;5010828;28;20210;-67
2023/07/20 03:06:08;;;;;;;0.70;0.50;;;18.50;99.90;;;;;;5011564;28;20232;-67
2023/07/20 03:08:36;;;;;;;1.23;0.82;;;18.50;99.90;;;;;;5015467;28;20206;-68
2023/07/20 03:11:04;;;;;;;0.70;0.60;;;18.60;99.90;;;;;;5011147;28;20198;-68
2023/07/20 03:13:32;;;;;;;0.60;0.40;;;18.50;99.90;;;;;;5010497;28;20221;-67
2023/07/20 03:16:01;;;;;;;0.60;0.40;;;18.50;99.90;;;;;;5010814;28;20268;-65
2023/07/20 03:18:29;;;;;;;0.70;0.50;;;18.50;99.90;;;;;;5010601;28;20206;-67
2023/07/20 03:20:58;;;;;;;0.70;0.60;;;18.60;99.90;;;;;;5011028;28;20193;-68
2023/07/20 03:23:26;;;;;;;0.60;0.40;;;18.70;99.90;;;;;;5023893;28;20267;-67
2023/07/20 03:25:55;;;;;;;0.98;0.47;;;18.70;99.90;;;;;;5024694;28;20308;-68
2023/07/20 03:28:23;;;;;;;0.80;0.57;;;18.60;99.90;;;;;;5010672;28;20209;-66
2023/07/20 03:30:54;;;;;;;0.60;0.50;;;18.60;99.90;;;;;;5011030;28;20202;-68
2023/07/20 03:33:25;;;;;;;0.70;0.60;;;18.50;99.90;;;;;;5010855;28;20236;-66
2023/07/20 03:35:53;;;;;;;1.00;0.90;;;18.70;99.90;;;;;;5010683;28;20221;-67
2023/07/20 03:38:21;;;;;;;1.25;0.95;;;19.00;99.90;;;;;;5016773;28;20254;-66
2023/07/20 03:40:53;;;;;;;0.60;0.50;;;19.40;99.90;;;;;;5026434;28;20263;-67
2023/07/20 03:43:21;;;;;;;0.80;0.50;;;19.70;99.90;;;;;;5013265;28;20205;-67
2023/07/20 03:45:50;;;;;;;0.63;0.50;;;19.80;99.90;;;;;;5016558;28;20622;-67
2023/07/20 03:48:19;;;;;;;0.70;0.60;;;19.70;99.90;;;;;;5027320;23;20312;-69
2023/07/20 03:50:51;;;;;;;0.60;0.50;;;19.90;99.90;;;;;;5005072;28;20213;-69
2023/07/20 03:53:19;;;;;;;0.60;0.60;;;19.90;99.90;;;;;;5007995;28;20201;-69
2023/07/20 03:55:47;;;;;;;0.73;0.50;;;19.90;99.90;;;;;;5006297;28;20209;-70
2023/07/20 03:58:15;;;;;;;1.77;0.77;;;20.20;99.90;;;;;;5004086;28;20225;-67
2023/07/20 04:00:45;;;;;;;0.95;0.55;;;20.10;99.90;;;;;;5001506;28;20693;-69
2023/07/20 04:03:14;;;;;;;0.77;0.60;;;19.90;99.90;;;;;;5000347;28;20700;-69
2023/07/20 04:05:43;;;;;;;0.70;0.60;;;19.90;99.90;;;;;;5001865;28;20592;-67
2023/07/20 04:08:12;;;;;;;1.00;0.80;;;19.80;99.90;;;;;;5004068;28;20234;-67
2023/07/20 04:10:44;;;;;;;0.60;0.40;;;19.60;99.90;;;;;;5003965;28;20214;-68
2023/07/20 04:13:12;;;;;;;2.10;0.63;;;19.70;99.90;;;;;;5002889;28;20235;-69
2023/07/20 04:15:40;;;;;;;0.68;0.57;;;19.80;99.90;;;;;;5002842;28;20228;-69
2023/07/20 04:18:08;;;;;;;0.80;0.50;;;19.70;99.90;;;;;;5002955;28;20236;-68
2023/07/20 04:20:36;;;;;;;0.70;0.60;;;19.70;99.90;;;;;;5001207;28;20209;-67
2023/07/20 04:23:03;;;;;;;0.80;0.52;;;19.80;99.90;;;;;;5001692;28;20221;-67
2023/07/20 04:25:38;;;;;;;0.60;0.50;;;19.80;99.90;;;;;;5002846;28;20421;-67
2023/07/20 04:28:09;;;;;;;0.60;0.50;;;19.70;99.90;;;;;;5001301;28;20239;-69
2023/07/20 04:30:39;;;;;;;0.60;0.40;;;19.80;99.90;;;;;;5001933;28;20209;-67
2023/07/20 04:33:07;;;;;;;0.60;0.45;;;19.80;99.90;;;;;;5001695;28;20221;-68
2023/07/20 04:35:52;;;;;;;0.63;0.63;;;19.80;99.90;;;;;;5003516;28;20297;-67
2023/07/20 04:38:20;;;;;;;0.60;0.40;;;19.70;99.90;;;;;;5000478;28;20229;-69
2023/07/20 04:40:50;;;;;;;0.70;0.60;;;19.70;99.90;;;;;;5002506;28;20209;-68
2023/07/20 04:43:19;;;;;;;0.60;0.40;;;19.60;99.90;;;;;;5000635;28;20209;-68
2023/07/20 04:45:47;;;;;;;0.60;0.50;;;19.60;99.90;;;;;;5003034;28;20346;-68
2023/07/20 04:48:17;;;;;;;0.65;0.65;;;19.50;99.90;;;;;;5001188;28;20241;-69
2023/07/20 04:50:48;;;;;;;0.70;0.70;;;19.40;99.90;;;;;;5001826;28;20823;-68
2023/07/20 04:53:16;;;;;;;0.70;0.70;;;19.40;99.90;;;;;;5002426;28;20221;-68
2023/07/20 04:55:51;;;;;;;0.70;0.50;;;19.30;99.90;;;;;;5001955;28;20205;-69
2023/07/20 04:58:20;;;;;;;0.60;0.50;;;19.30;99.90;;;;;;4999183;28;20224;-69
2023/07/20 05:00:49;;;;;;;0.60;0.40;;;19.30;99.90;;;;;;5000741;28;20205;-68
2023/07/20 05:03:17;;;;;;;0.65;0.50;;;19.20;99.90;;;;;;5001204;28;20271;-68
2023/07/20 05:05:45;;;;;;;1.02;0.80;;;19.30;99.90;;;;;;5005785;28;20680;-67
2023/07/20 05:08:17;;;;;;;0.60;0.50;;;19.30;99.90;;;;;;5002873;28;20240;-69
2023/07/20 05:10:45;;;;;;;0.60;0.40;;;19.40;99.90;;;;;;5002513;28;20304;-68
2023/07/20 05:13:14;;;;;;;0.90;0.60;;;19.30;99.90;;;;;;5000913;28;20210;-68
2023/07/20 05:15:42;;;;;;;0.80;0.70;;;19.00;99.90;;;;;;5001661;28;20213;-67
2023/07/20 05:18:10;;;;;;;0.63;0.45;;;19.10;99.90;;;;;;5001762;28;20239;-68
2023/07/20 05:20:38;;;;;;;0.60;0.40;;;19.40;99.90;;;;;;5000227;28;20220;-68
2023/07/20 05:23:05;;;;;;;0.90;0.70;;;19.30;99.90;;;;;;5001828;28;20216;-67
2023/07/20 05:25:34;;;;;;;0.60;0.50;;;19.40;99.90;;;;;;5002734;28;20807;-67
2023/07/20 05:28:01;;;;;;;0.90;0.60;;;19.50;99.90;;;;;;5001329;28;20233;-68
2023/07/20 05:30:31;;;;;;;1.02;0.43;;;19.60;99.90;;;;;;4995629;28;20222;-68
2023/07/20 05:32:59;;;;;;;0.60;0.40;;;19.70;99.90;;;;;;5002030;28;20375;-67
2023/07/20 05:35:27;;;;;;;0.63;0.52;;;19.70;99.90;;;;;;5000116;28;21103;-70
2023/07/20 05:37:55;;;;;;;0.52;0.40;;;19.70;99.90;;;;;;5001456;28;20711;-68
2023/07/20 05:40:23;;;;;;;0.60;0.40;;;19.90;99.90;;;;;;4996394;28;20571;-67
2023/07/20 05:42:53;;;;;;;0.60;0.40;;;20.00;99.90;;;;;;5000994;28;20206;-70
2023/07/20 05:45:21;;;;;;;0.60;0.52;;;19.90;99.90;;;;;;5001153;28;20213;-69
2023/07/20 05:47:50;;;;;;;0.70;0.70;;;20.00;99.90;;;;;;5001582;28;20715;-68
2023/07/20 05:50:19;;;;;;;0.82;0.63;;;20.00;99.90;;;;;;5000748;28;20267;-70
2023/07/20 05:52:47;;;;;;;0.80;0.52;;;20.10;99.90;;;;;;5000188;28;20205;-68
2023/07/20 05:55:15;;;;;;;0.60;0.50;;;20.10;99.90;;;;;;5001092;28;21345;-68
2023/07/20 05:57:44;;;;;;;0.60;0.40;;;19.90;99.90;;;;;;5001523;28;20233;-69
2023/07/20 06:00:13;;;;;;;0.60;0.40;;;19.80;99.90;;;;;;4997769;28;20209;-68
2023/07/20 06:02:42;;;;;;;14.73;1.10;;;19.90;99.90;;;;;;4999738;28;20211;-67
2023/07/20 06:05:12;;;;;;;0.60;0.40;;;19.80;99.90;;;;;;5001439;28;20209;-67
2023/07/20 06:07:40;;;;;;;0.60;0.40;;;19.70;99.90;;;;;;5001197;28;20228;-68
2023/07/20 06:10:08;;;;;;;1.42;0.52;;;19.70;99.90;;;;;;4998150;28;20928;-66
2023/07/20 06:12:36;;;;;;;0.65;0.47;;;19.70;99.90;;;;;;5001770;28;20223;-65
2023/07/20 06:15:06;;;;;;;0.50;0.40;;;19.60;99.90;;;;;;4999355;28;20236;-65
2023/07/20 06:17:34;;;;;;;0.60;0.50;;;19.60;99.90;;;;;;5002963;28;20225;-64
2023/07/20 06:20:06;;;;;;;0.80;0.60;;;19.50;99.90;;;;;;5006269;28;20692;-67
2023/07/20 06:22:36;;;;;;;0.77;0.70;;;19.50;99.90;;;;;;5006320;28;20217;-67
2023/07/20 06:25:04;;;;;;;0.75;0.50;;;19.40;99.90;;;;;;5008630;28;20197;-67
2023/07/20 06:27:32;;;;;;;1.02;0.75;;;19.20;99.90;;;;;;5004907;28;20236;-67
2023/07/20 06:30:00;;;;;;;0.85;0.60;;;19.10;99.90;;;;;;5010998;28;20259;-67
2023/07/20 06:32:28;;;;;;;0.70;0.68;;;19.10;99.90;;;;;;5011258;28;20220;-67
2023/07/20 06:34:56;;;;;;;0.70;0.60;;;19.20;99.90;;;;;;5011370;28;20219;-67
2023/07/20 06:37:24;;;;;;;0.50;0.40;;;19.30;99.90;;;;;;5010853;28;20710;-67
2023/07/20 06:39:53;;;;;;;0.70;0.45;;;19.40;99.90;;;;;;5011357;28;20746;-67
2023/07/20 06:42:24;;;;;;;0.60;0.40;;;19.40;99.90;;;;;;5011306;28;20207;-67
2023/07/20 06:44:52;;;;;;;1.38;0.70;;;19.60;99.90;;;;;;5011200;28;20272;-67
2023/07/20 06:47:20;;;;;;;0.57;0.40;;;19.60;99.90;;;;;;5010895;28;20232;-67
2023/07/20 06:49:48;;;;;;;0.70;0.40;;;19.70;99.90;;;;;;5003193;28;20565;-67
2023/07/20 06:52:16;;;;;;;0.60;0.40;;;19.70;99.90;;;;;;5010899;28;20217;-67
2023/07/20 06:54:44;;;;;;;0.60;0.40;;;19.70;99.90;;;;;;5010982;28;20205;-67
2023/07/20 06:57:13;;;;;;;0.73;0.73;;;19.80;99.90;;;;;;5011247;28;20230;-67
2023/07/20 06:59:46;;;;;;;0.90;0.70;;;19.90;99.90;;;;;;5011027;28;20205;-67
2023/07/20 07:02:14;;;;;;;0.60;0.43;;;20.00;99.90;;;;;;5011256;28;20211;-67
2023/07/20 07:04:42;;;;;;;0.85;0.60;;;20.10;99.90;;;;;;5010777;28;20226;-67
2023/07/20 07:07:10;;;;;;;0.70;0.60;;;20.00;99.90;;;;;;5011094;28;20233;-68
2023/07/20 07:09:38;;;;;;;0.90;0.70;;;20.00;99.90;;;;;;5010930;28;20293;-67
2023/07/20 07:12:07;;;;;;;0.82;0.60;;;20.10;99.90;;;;;;5006933;28;20288;-67
2023/07/20 07:14:36;;;;;;;0.80;0.40;;;20.10;99.90;;;;;;5009464;28;20297;-67
2023/07/20 07:17:07;;;;;;;0.75;0.75;;;20.10;99.90;;;;;;5010935;28;20666;-66
2023/07/20 07:19:36;;;;;;;0.60;0.50;;;20.30;99.90;;;;;;5010681;28;20293;-66
2023/07/20 07:22:04;;;;;;;0.60;0.40;;;20.50;99.90;;;;;;5011097;28;20256;-66
2023/07/20 07:24:34;;;;;;;0.80;0.50;;;20.80;99.90;;;;;;5011007;28;20241;-67
2023/07/20 07:27:02;;;;;;;2.55;0.95;;;20.90;99.90;;;;;;5010583;28;20225;-67
2023/07/20 07:29:30;;;;;;;0.65;0.50;;;21.00;99.90;;;;;;5010207;28;20214;-67
2023/07/20 07:31:59;;;;;;;0.60;0.40;;;21.10;99.90;;;;;;5011070;28;20680;-68
2023/07/20 07:34:27;;;;;;;0.70;0.40;;;21.20;99.90;;;;;;5010831;28;20640;-67
2023/07/20 07:36:55;;;;;;;0.60;0.47;;;21.30;99.90;;;;;;5010676;28;20231;-66
2023/07/20 07:39:24;;;;;;;0.60;0.50;;;21.30;99.90;;;;;;5010527;28;20209;-66
2023/07/20 07:41:55;;;;;;;0.70;0.55;;;21.30;99.90;;;;;;5010509;28;20221;-67
2023/07/20 07:44:23;;;;;;;0.60;0.40;;;21.20;99.90;;;;;;5014217;28;20207;-70
2023/07/20 07:46:51;;;;;;;0.60;0.40;;;21.10;99.90;;;;;;5014299;28;20234;-68
2023/07/20 07:49:20;;;;;;;0.60;0.57;;;21.00;99.90;;;;;;5014388;28;20249;-67
2023/07/20 07:51:48;;;;;;;0.60;0.47;;;21.00;99.90;;;;;;5006617;28;20202;-67
2023/07/20 07:54:16;;;;;;;0.60;0.50;;;21.30;99.90;;;;;;5014773;28;20202;-67
2023/07/20 07:56:45;;;;;;;0.82;0.55;;;21.60;99.90;;;;;;5013963;28;20605;-66
2023/07/20 07:59:13;;;;;;;0.60;0.40;;;21.70;99.90;;;;;;5014358;28;20221;-66
2023/07/20 08:01:41;;;;;;;0.90;0.50;;;21.80;99.90;;;;;;5014251;28;20677;-66
2023/07/20 08:04:09;;;;;;;0.75;0.52;;;22.10;99.90;;;;;;5014400;28;20207;-68
2023/07/20 08:06:38;;;;;;;0.70;0.60;;;22.20;99.90;;;;;;5013651;28;20234;-67
2023/07/20 08:09:06;;;;;;;0.57;0.40;;;22.30;99.90;;;;;;5014216;28;20254;-67
2023/07/20 08:11:34;;;;;;;0.60;0.43;;;22.60;99.90;;;;;;5013942;28;20700;-67
2023/07/20 08:14:02;;;;;;;0.60;0.40;;;22.50;99.90;;;;;;5014470;28;20583;-68
2023/07/20 08:16:30;;;;;;;0.70;0.55;;;22.40;99.90;;;;;;5013782;28;20205;-67
2023/07/20 08:18:59;;;;;;;0.63;0.52;;;22.60;99.90;;;;;;5014017;28;20662;-67
2023/07/20 08:21:27;;;;;;;0.60;0.50;;;22.70;99.90;;;;;;5013650;28;20204;-67
2023/07/20 08:23:56;;;;;;;0.60;0.50;;;22.60;99.90;;;;;;5014040;28;20229;-68
2023/07/20 08:26:24;;;;;;;0.60;0.50;;;22.30;99.90;;;;;;5012007;28;20203;-67
2023/07/20 08:28:53;;;;;;;1.60;0.63;;;22.20;99.90;;;;;;5013879;28;20222;-67
2023/07/20 08:31:21;;;;;;;0.70;0.50;;;22.00;99.90;;;;;;5013858;28;20221;-68
2023/07/20 08:33:49;;;;;;;0.60;0.40;;;21.80;99.90;;;;;;5005947;28;20324;-68
2023/07/20 08:36:17;;;;;;;0.50;0.40;;;21.80;99.90;;;;;;5013481;28;20868;-67
2023/07/20 08:38:45;;;;;;;1.08;0.50;;;21.90;99.90;;;;;;5013590;28;20201;-68
2023/07/20 08:41:15;;;;;;;0.60;0.50;;;22.20;99.90;;;;;;5013271;28;20210;-67
2023/07/20 08:43:45;;;;;;;0.70;0.55;;;22.40;99.90;;;;;;5013494;28;20213;-67
2023/07/20 08:46:14;;;;;;;1.00;0.70;;;22.50;99.90;;;;;;5013405;28;20210;-67
2023/07/20 08:48:44;;;;;;;0.60;0.50;;;22.60;99.90;;;;;;5013192;28;20596;-67
2023/07/20 08:51:13;;;;;;;0.80;0.65;;;22.90;99.90;;;;;;5013230;28;20289;-67
2023/07/20 08:53:41;;;;;;;1.77;0.52;;;23.10;99.90;;;;;;5012777;28;20206;-67
2023/07/20 08:56:11;;;;;;;0.65;0.60;;;23.10;99.90;;;;;;5013359;28;20254;-68
2023/07/20 08:58:42;;;;;;;0.73;0.47;;;23.20;99.90;;;;;;5013322;28;20221;-67
2023/07/20 09:01:11;;;;;;;0.60;0.40;;;23.10;99.90;;;;;;5011482;28;20206;-67
2023/07/20 09:03:40;;;;;;;0.60;0.40;;;23.00;99.90;;;;;;5012724;28;20302;-68
2023/07/20 09:06:07;;;;;;;0.60;0.50;;;23.00;99.90;;;;;;5013113;28;20559;-67
2023/07/20 09:08:39;;;;;;;0.60;0.40;;;23.20;99.90;;;;;;5012888;28;20222;-67
2023/07/20 09:11:07;;;;;;;0.80;0.70;;;23.20;99.90;;;;;;5013087;28;20205;-67
2023/07/20 09:13:35;;;;;;;0.60;0.40;;;23.40;99.90;;;;;;5012980;28;20226;-67
2023/07/20 09:16:05;;;;;;;0.60;0.50;;;23.40;99.90;;;;;;5012541;28;20227;-68
2023/07/20 09:18:34;;;;;;;2.38;2.17;;;23.30;99.90;;;;;;5010431;28;20251;-67
2023/07/20 09:21:04;;;;;;;0.60;0.40;;;23.00;99.90;;;;;;5004675;28;20230;-67
2023/07/20 09:23:33;;;;;;;0.60;0.40;;;23.00;99.90;;;;;;5012812;28;20206;-67
2023/07/20 09:26:09;;;;;;;0.90;0.70;;;23.10;99.90;;;;;;5012729;28;20587;-66
2023/07/20 09:28:43;;;;;;;0.60;0.40;;;23.10;99.90;;;;;;5012526;28;20257;-67
2023/07/20 09:31:19;;;;;;;0.60;0.50;;;23.40;99.90;;;;;;5008925;28;20205;-67
2023/07/20 09:33:48;;;;;;;0.90;0.60;;;23.70;99.90;;;;;;5012110;28;20230;-67
2023/07/20 09:36:19;;;;;;;0.60;0.40;;;24.20;99.90;;;;;;5012356;28;20198;-67
2023/07/20 09:39:07;;;;;;;1.08;0.73;;;24.40;99.90;;;;;;5012725;28;20230;-67
2023/07/20 09:41:43;;;;;;;0.60;0.50;;;24.30;99.90;;;;;;5012150;28;20265;-67
2023/07/20 09:44:15;;;;;;;0.60;0.50;;;24.00;99.90;;;;;;5012565;28;20294;-67
2023/07/20 09:46:49;;;;;;;0.70;0.57;;;23.70;99.90;;;;;;5010901;28;20670;-66
2023/07/20 09:49:20;;;;;;;0.60;0.40;;;23.50;99.90;;;;;;5011993;28;20218;-67
2023/07/20 09:51:52;;;;;;;0.60;0.40;;;23.30;99.90;;;;;;5004232;28;20203;-67
2023/07/20 09:54:22;;;;;;;0.60;0.50;;;23.20;99.90;;;;;;5012388;28;20218;-67
2023/07/20 09:56:52;;;;;;;0.90;0.60;;;23.10;99.90;;;;;;5011892;28;20226;-67
2023/07/20 09:59:20;;;;;;;0.60;0.50;;;23.10;99.90;;;;;;5012240;28;20245;-69
2023/07/20 10:01:52;;;;;;;0.60;0.50;;;23.30;99.90;;;;;;5011014;28;20195;-69
2023/07/20 10:04:23;;;;;;;0.60;0.50;;;23.80;99.90;;;;;;5011473;28;20215;-67
2023/07/20 10:06:55;;;;;;;0.70;0.65;;;24.60;99.90;;;;;;5003853;28;20325;-67
2023/07/20 10:09:25;;;;;;;0.60;0.40;;;25.10;99.90;;;;;;5011997;28;20219;-67
2023/07/20 10:11:54;;;;;;;0.70;0.50;;;25.30;99.10;;;;;;5011887;28;20261;-67
2023/07/20 10:14:50;;;;;;;0.60;0.50;;;25.00;99.00;;;;;;5011724;28;20805;-67
2023/07/20 10:17:20;;;;;;;0.70;0.57;;;24.70;99.30;;;;;;5011676;28;20229;-67
2023/07/20 10:19:50;;;;;;;0.82;0.55;;;24.80;99.20;;;;;;5011633;28;20739;-67
2023/07/20 10:22:25;;;;;;;0.80;0.50;;;24.80;99.40;;;;;;5011710;28;20207;-68
2023/07/20 10:24:58;;;;;;;0.70;0.50;;;24.70;99.70;;;;;;5003877;28;20207;-67
2023/07/20 10:27:27;;;;;;;0.60;0.40;;;24.60;99.90;;;;;;5011524;28;20258;-69
2023/07/20 10:29:57;;;;;;;0.82;0.70;;;24.60;99.80;;;;;;5011692;28;20577;-67
2023/07/20 10:32:26;;;;;;;0.70;0.50;;;24.60;99.80;;;;;;5011137;28;20214;-67
2023/07/20 10:34:56;;;;;;;0.60;0.50;;;24.40;99.50;;;;;;5011407;28;20211;-67
2023/07/20 10:37:50;;;;;;;0.60;0.40;;;24.40;99.90;;;;;;5011938;28;20695;-68
2023/07/20 10:40:30;;;;;;;0.70;0.55;;;24.50;99.70;;;;;;5007088;28;20225;-67
2023/07/20 10:43:03;;;;;;;0.93;0.68;;;24.40;99.80;;;;;;5004337;28;20203;-67
2023/07/20 10:45:40;;;;;;;0.68;0.60;;;24.40;99.80;;;;;;5006971;28;20208;-68
2023/07/20 10:48:17;;;;;;;0.60;0.60;;;24.40;99.70;;;;;;5011124;28;20237;-68
2023/07/20 10:50:45;;;;;;;1.40;0.68;;;24.30;99.60;;;;;;5011025;28;20231;-68
2023/07/20 10:53:15;;;;;;;0.60;0.45;;;24.20;99.50;;;;;;5011327;28;20740;-68
2023/07/20 10:55:43;;;;;;;0.55;0.40;;;24.10;99.90;;;;;;5011110;28;20250;-68
2023/07/20 10:58:14;;;;;;;1.00;0.60;;;24.00;99.20;;;;;;5011278;28;20233;-67
2023/07/20 11:01:02;;;;;;;0.55;0.40;;;23.90;99.80;;;;;;5010654;28;20207;-68
2023/07/20 11:03:36;;;;;;;0.60;0.40;;;23.60;99.80;;;;;;5010946;28;20207;-68
2023/07/20 11:06:31;;;;;;;0.70;0.55;;;23.60;99.80;;;;;;5011125;28;20736;-67
2023/07/20 11:09:06;;;;;;;0.60;0.50;;;23.90;99.60;;;;;;5004082;28;20272;-67
2023/07/20 11:11:38;;;;;;;0.60;0.40;;;24.20;98.90;;;;;;5010941;28;20221;-67
2023/07/20 11:14:08;;;;;;;0.60;0.40;;;24.20;98.70;;;;;;5011052;28;20253;-68
2023/07/20 11:16:41;;;;;;;0.60;0.40;;;24.20;98.80;;;;;;5014104;28;20305;-67
2023/07/20 11:19:18;;;;;;;0.60;0.40;;;24.30;98.60;;;;;;5017768;28;20206;-67
2023/07/20 11:21:52;;;;;;;0.60;0.40;;;24.30;98.50;;;;;;5017228;28;20681;-66
2023/07/20 11:24:31;;;;;;;1.63;0.40;;;24.60;99.30;;;;;;5017374;28;20212;-68
2023/07/20 11:26:59;;;;;;;0.70;0.57;;;24.70;97.60;;;;;;5017295;28;20230;-67
2023/07/20 11:29:28;;;;;;;0.70;0.63;;;25.00;97.70;;;;;;5017207;28;20223;-67
2023/07/20 11:32:01;;;;;;;0.80;0.63;;;25.40;96.90;;;;;;5010039;28;20200;-67
2023/07/20 11:34:33;;;;;;;0.60;0.40;;;25.70;96.70;;;;;;5017144;28;20223;-67
2023/07/20 11:37:02;;;;;;;0.80;0.60;;;25.60;96.80;;;;;;5016906;28;20323;-68
2023/07/20 11:39:33;;;;;;;0.60;0.40;;;25.50;96.50;;;;;;5017088;28;20204;-68
2023/07/20 11:42:01;;;;;;;0.60;0.50;;;25.30;96.80;;;;;;5017272;28;20206;-67
2023/07/20 11:44:30;;;;;;;0.60;0.45;;;25.20;96.70;;;;;;5014316;28;20206;-67
2023/07/20 11:47:03;;;;;;;1.05;0.70;;;24.90;97.90;;;;;;5016821;28;20242;-67
2023/07/20 11:49:37;;;;;;;0.60;0.40;;;24.80;97.20;;;;;;5016980;28;20675;-67
2023/07/20 11:52:07;;;;;;;0.60;0.43;;;24.90;97.50;;;;;;5017140;28;20216;-67
2023/07/20 11:54:36;;;;;;;0.70;0.60;;;24.80;97.50;;;;;;5016939;28;20215;-67
2023/07/20 11:57:05;;;;;;;0.60;0.50;;;24.70;97.90;;;;;;5017172;28;20215;-69
2023/07/20 11:59:34;;;;;;;0.60;0.50;;;24.80;98.20;;;;;;5016850;28;20211;-67
2023/07/20 12:02:03;;;;;;;0.68;0.55;;;24.80;98.30;;;;;;5016777;28;20208;-67
2023/07/20 12:04:34;;;;;;;0.60;0.50;;;24.90;98.80;;;;;;5016593;28;20227;-67
2023/07/20 12:07:02;;;;;;;0.60;0.50;;;24.70;98.30;;;;;;5017022;28;20219;-67
2023/07/20 12:09:30;;;;;;;0.60;0.40;;;24.60;98.70;;;;;;5016902;28;20861;-73
2023/07/20 12:12:20;;;;;;;0.60;0.47;;;24.60;99.70;;;;;;5017011;28;20209;-67
2023/07/20 12:14:48;;;;;;;0.70;0.60;;;24.60;99.70;;;;;;5016538;28;20665;-67
2023/07/20 12:17:17;;;;;;;0.70;0.50;;;24.60;99.90;;;;;;5015942;28;20226;-67
2023/07/20 12:19:46;;;;;;;0.60;0.40;;;24.60;98.20;;;;;;5011050;28;20211;-68
2023/07/20 12:22:14;;;;;;;0.70;0.50;;;24.40;97.80;;;;;;5016691;28;20230;-67
2023/07/20 12:24:42;;;;;;;0.57;0.40;;;24.50;98.80;;;;;;5016555;28;20215;-67
2023/07/20 12:27:14;;;;;;;0.70;0.50;;;24.60;99.20;;;;;;5015397;28;20232;-67
2023/07/20 12:29:42;;;;;;;0.70;0.65;;;24.70;99.50;;;;;;5013143;28;20203;-67
2023/07/20 12:32:10;;;;;;;2.05;1.00;;;24.70;98.00;;;;;;5013502;28;20250;-69
2023/07/20 12:34:38;;;;;;;0.70;0.50;;;25.10;99.00;;;;;;5013478;28;20262;-69
2023/07/20 12:37:08;;;;;;;0.60;0.50;;;25.10;98.30;;;;;;5013584;28;20224;-69
2023/07/20 12:39:40;;;;;;;0.60;0.40;;;25.00;96.90;;;;;;5013367;28;20231;-67
2023/07/20 12:42:09;;;;;;;2.58;0.77;;;25.00;96.60;;;;;;5013158;28;20223;-67
2023/07/20 12:44:37;;;;;;;1.52;1.42;;;25.10;96.70;;;;;;5010805;28;20212;-67
2023/07/20 12:47:05;;;;;;;0.65;0.47;;;25.20;95.50;;;;;;5013173;28;20232;-68
2023/07/20 12:49:33;;;;;;;0.60;0.50;;;25.20;95.60;;;;;;5013266;28;20233;-67
2023/07/20 12:52:01;;;;;;;0.60;0.40;;;25.30;96.00;;;;;;5013380;28;20074;-69
2023/07/20 12:54:30;;;;;;;1.30;0.52;;;25.90;96.80;;;;;;5013353;28;20219;-68
2023/07/20 12:56:59;;;;;;;1.73;0.45;;;26.80;95.10;;;;;;5013518;28;20235;-68
2023/07/20 12:59:30;;;;;;;0.68;0.60;;;27.70;93.80;;;;;;5013964;28;20200;-69
2023/07/20 13:01:58;;;;;;;0.65;0.50;;;28.60;93.00;;;;;;5006279;28;20251;-68